createdAt,value
2022-08-28T00:01:25.215Z,86.82
2022-08-28T00:03:51.840Z,86.61
2022-08-28T00:06:18.526Z,86.48
2022-08-28T00:08:45.098Z,86.96
2022-08-28T00:11:11.748Z,87.19
2022-08-28T00:13:38.441Z,87.20
2022-08-28T00:16:05.642Z,87.29
2022-08-28T00:18:34.240Z,86.87
2022-08-28T00:21:01.418Z,86.91
2022-08-28T00:23:40.293Z,86.79
2022-08-28T00:26:10.329Z,87.74
2022-08-28T00:28:37.126Z,87.00
2022-08-28T00:31:03.911Z,87.07
2022-08-28T00:33:34.479Z,86.78
2022-08-28T00:36:02.205Z,87.15
2022-08-28T00:38:29.663Z,87.25
2022-08-28T00:41:00.687Z,87.20
2022-08-28T00:43:36.911Z,87.22
2022-08-28T00:46:06.048Z,87.28
2022-08-28T00:48:34.021Z,87.50
2022-08-28T00:51:02.207Z,87.60
2022-08-28T00:53:32.798Z,87.51
2022-08-28T00:56:02.643Z,87.81
2022-08-28T00:58:31.237Z,87.31
2022-08-28T01:00:57.939Z,87.42
2022-08-28T01:03:25.114Z,87.81
2022-08-28T01:05:55.055Z,87.79
2022-08-28T01:08:21.756Z,88.19
2022-08-28T01:10:53.945Z,88.07
2022-08-28T01:13:20.921Z,88.36
2022-08-28T01:15:48.342Z,88.11
2022-08-28T01:18:16.131Z,87.84
2022-08-28T01:20:49.033Z,88.08
2022-08-28T01:23:25.200Z,87.80
2022-08-28T01:25:53.137Z,86.68
2022-08-28T01:28:20.048Z,84.49
2022-08-28T01:30:48.289Z,82.22
2022-08-28T01:33:15.026Z,78.57
2022-08-28T01:35:44.735Z,78.32
2022-08-28T01:38:11.720Z,78.19
2022-08-28T01:40:41.659Z,77.42
2022-08-28T01:43:12.535Z,77.42
2022-08-28T01:45:40.108Z,76.34
2022-08-28T01:48:07.402Z,76.65
2022-08-28T01:50:35.512Z,76.30
2022-08-28T01:53:02.746Z,76.28
2022-08-28T01:55:29.483Z,75.13
2022-08-28T01:57:56.299Z,76.10
2022-08-28T02:00:25.089Z,75.73
2022-08-28T02:02:51.652Z,74.55
2022-08-28T02:05:18.369Z,74.47
2022-08-28T02:07:44.944Z,74.46
2022-08-28T02:10:11.536Z,74.29
2022-08-28T02:12:38.235Z,74.58
2022-08-28T02:15:06.060Z,74.42
2022-08-28T02:17:34.046Z,74.48
2022-08-28T02:20:00.612Z,75.02
2022-08-28T02:22:27.401Z,75.07
2022-08-28T02:24:54.005Z,74.64
2022-08-28T02:27:20.716Z,75.22
2022-08-28T02:29:47.325Z,74.66
2022-08-28T02:32:13.956Z,74.18
2022-08-28T02:34:41.910Z,75.76
2022-08-28T02:37:08.469Z,74.82
2022-08-28T02:39:35.528Z,75.00
2022-08-28T02:42:02.208Z,75.17
2022-08-28T02:44:28.802Z,74.99
2022-08-28T02:46:55.487Z,74.15
2022-08-28T02:49:22.959Z,74.52
2022-08-28T02:51:51.032Z,74.76
2022-08-28T02:54:18.458Z,74.63
2022-08-28T02:56:45.188Z,73.81
2022-08-28T02:59:11.878Z,74.66
2022-08-28T03:01:38.628Z,74.71
2022-08-28T03:04:05.823Z,74.13
2022-08-28T03:06:33.032Z,74.06
2022-08-28T03:09:01.109Z,74.32
2022-08-28T03:11:28.189Z,74.79
2022-08-28T03:13:54.755Z,74.76
2022-08-28T03:16:21.338Z,74.79
2022-08-28T03:18:47.971Z,75.14
2022-08-28T03:21:14.610Z,75.40
2022-08-28T03:23:41.182Z,75.14
2022-08-28T03:26:11.528Z,75.12
2022-08-28T03:28:41.048Z,74.96
2022-08-28T03:31:08.543Z,75.10
2022-08-28T03:33:35.324Z,75.70
2022-08-28T03:36:04.607Z,75.21
2022-08-28T03:38:31.628Z,74.68
2022-08-28T03:40:58.216Z,74.90
2022-08-28T03:43:26.202Z,75.46
2022-08-28T03:45:56.367Z,75.70
2022-08-28T03:48:23.096Z,75.14
2022-08-28T03:50:50.271Z,75.13
2022-08-28T03:53:18.636Z,75.52
2022-08-28T03:55:45.226Z,75.52
2022-08-28T03:58:12.069Z,75.96
2022-08-28T04:00:47.318Z,75.48
2022-08-28T04:03:14.241Z,75.70
2022-08-28T04:05:41.891Z,75.76
2022-08-28T04:08:08.764Z,75.82
2022-08-28T04:10:35.656Z,76.45
2022-08-28T04:13:02.921Z,76.51
2022-08-28T04:15:29.761Z,76.55
2022-08-28T04:17:57.698Z,77.00
2022-08-28T04:20:24.386Z,77.79
2022-08-28T04:22:55.064Z,77.66
2022-08-28T04:25:22.473Z,77.55
2022-08-28T04:27:50.058Z,77.73
2022-08-28T04:30:17.462Z,78.37
2022-08-28T04:32:44.160Z,78.18
2022-08-28T04:35:13.345Z,78.26
2022-08-28T04:37:40.718Z,78.71
2022-08-28T04:40:09.082Z,78.50
2022-08-28T04:42:35.860Z,79.16
2022-08-28T04:45:02.701Z,78.59
2022-08-28T04:47:29.305Z,78.16
2022-08-28T04:49:55.931Z,78.40
2022-08-28T04:52:23.902Z,78.97
2022-08-28T04:54:50.444Z,78.76
2022-08-28T04:57:17.053Z,77.82
2022-08-28T04:59:43.720Z,78.65
2022-08-28T05:02:10.477Z,78.13
2022-08-28T05:04:37.244Z,79.07
2022-08-28T05:07:04.062Z,77.98
2022-08-28T05:09:32.114Z,77.59
2022-08-28T05:12:01.917Z,77.91
2022-08-28T05:14:28.549Z,77.80
2022-08-28T05:16:55.143Z,77.35
2022-08-28T05:19:22.036Z,77.21
2022-08-28T05:21:48.783Z,78.03
2022-08-28T05:24:15.553Z,77.72
2022-08-28T05:26:43.556Z,77.92
2022-08-28T05:29:10.642Z,78.00
2022-08-28T05:31:38.024Z,78.56
2022-08-28T05:34:05.149Z,78.92
2022-08-28T05:36:35.961Z,78.15
2022-08-28T05:39:07.011Z,77.94
2022-08-28T05:41:34.019Z,78.54
2022-08-28T05:44:05.561Z,78.55
2022-08-28T05:46:32.819Z,78.06
2022-08-28T05:48:59.419Z,78.59
2022-08-28T05:51:27.552Z,78.15
2022-08-28T05:53:54.880Z,78.46
2022-08-28T05:56:24.049Z,79.00
2022-08-28T05:58:51.075Z,78.33
2022-08-28T06:01:21.443Z,78.88
2022-08-28T06:03:53.063Z,78.40
2022-08-28T06:06:19.850Z,79.09
2022-08-28T06:08:56.339Z,77.81
2022-08-28T06:11:27.137Z,78.29
2022-08-28T06:13:58.782Z,77.87
2022-08-28T06:16:26.842Z,77.38
2022-08-28T06:18:53.624Z,76.80
2022-08-28T06:21:20.305Z,76.43
2022-08-28T06:23:46.883Z,76.17
2022-08-28T06:26:13.548Z,75.70
2022-08-28T06:28:40.143Z,75.53
2022-08-28T06:31:23.541Z,75.69
2022-08-28T06:33:52.315Z,75.00
2022-08-28T06:36:18.900Z,75.61
2022-08-28T06:38:45.462Z,74.69
2022-08-28T06:41:12.449Z,74.53
2022-08-28T06:43:39.190Z,74.09
2022-08-28T06:46:06.260Z,74.47
2022-08-28T06:48:33.132Z,74.29
2022-08-28T06:51:01.152Z,72.81
2022-08-28T06:53:29.987Z,73.57
2022-08-28T06:55:59.031Z,71.30
2022-08-28T06:58:26.132Z,70.77
2022-08-28T07:01:02.989Z,69.82
2022-08-28T07:03:29.813Z,70.03
2022-08-28T07:05:57.176Z,69.22
2022-08-28T07:08:25.488Z,69.60
2022-08-28T07:10:52.457Z,68.71
2022-08-28T07:13:19.186Z,68.26
2022-08-28T07:15:45.877Z,68.88
2022-08-28T07:18:12.661Z,67.28
2022-08-28T07:20:39.444Z,66.96
2022-08-28T07:23:06.073Z,67.18
2022-08-28T07:25:34.177Z,66.84
2022-08-28T07:28:00.891Z,65.25
2022-08-28T07:30:27.496Z,65.24
2022-08-28T07:32:54.087Z,63.06
2022-08-28T07:35:21.038Z,63.89
2022-08-28T07:37:47.667Z,63.92
2022-08-28T07:40:14.567Z,63.78
2022-08-28T07:42:42.570Z,63.57
2022-08-28T07:45:10.365Z,63.65
2022-08-28T07:47:36.951Z,62.04
2022-08-28T07:50:04.493Z,63.05
2022-08-28T07:52:31.083Z,62.51
2022-08-28T07:54:57.647Z,62.65
2022-08-28T07:57:24.364Z,62.43
2022-08-28T07:59:52.422Z,63.11
2022-08-28T08:02:19.060Z,63.49
2022-08-28T08:04:45.640Z,62.45
2022-08-28T08:07:12.224Z,62.66
2022-08-28T08:09:40.386Z,62.53
2022-08-28T08:12:10.406Z,60.94
2022-08-28T08:14:37.956Z,61.96
2022-08-28T08:17:07.306Z,61.50
2022-08-28T08:19:34.408Z,62.57
2022-08-28T08:22:01.113Z,63.11
2022-08-28T08:24:28.600Z,61.56
2022-08-28T08:27:00.067Z,59.70
2022-08-28T08:29:29.094Z,60.31
2022-08-28T08:32:00.416Z,60.53
2022-08-28T08:34:28.664Z,58.87
2022-08-28T08:36:55.357Z,59.63
2022-08-28T08:39:22.082Z,60.70
2022-08-28T08:41:51.555Z,61.69
2022-08-28T08:44:28.475Z,59.71
2022-08-28T08:47:13.263Z,58.85
2022-08-28T08:49:47.514Z,58.38
2022-08-28T08:52:42.908Z,56.29
2022-08-28T08:55:25.073Z,54.60
2022-08-28T08:57:56.818Z,53.89
2022-08-28T09:00:24.574Z,52.28
2022-08-28T09:02:58.840Z,53.40
2022-08-28T09:05:44.907Z,52.42
2022-08-28T09:08:18.792Z,52.81
2022-08-28T09:10:52.729Z,52.25
2022-08-28T09:13:25.945Z,49.07
2022-08-28T09:15:52.685Z,49.67
2022-08-28T09:18:25.855Z,49.08
2022-08-28T09:20:55.737Z,48.53
2022-08-28T09:23:23.510Z,47.78
2022-08-28T09:25:54.934Z,48.05
2022-08-28T09:28:26.073Z,48.06
2022-08-28T09:30:57.154Z,47.30
2022-08-28T09:33:33.562Z,46.87
2022-08-28T09:36:22.958Z,47.20
2022-08-28T09:39:04.806Z,44.83
2022-08-28T09:41:32.354Z,44.69
2022-08-28T09:43:58.989Z,44.48
2022-08-28T09:46:30.273Z,44.35
2022-08-28T09:49:09.157Z,43.63
2022-08-28T09:51:37.439Z,44.75
2022-08-28T09:54:11.650Z,44.40
2022-08-28T09:56:41.394Z,44.42
2022-08-28T09:59:10.116Z,42.28
2022-08-28T10:01:47.287Z,42.98
2022-08-28T10:04:27.978Z,43.55
2022-08-28T10:07:01.212Z,43.37
2022-08-28T10:09:32.386Z,42.80
2022-08-28T10:12:06.590Z,43.50
2022-08-28T10:14:46.001Z,42.41
2022-08-28T10:17:25.203Z,43.72
2022-08-28T10:20:02.214Z,42.78
2022-08-28T10:22:38.938Z,41.58
2022-08-28T10:25:18.641Z,41.01
2022-08-28T10:27:57.712Z,42.12
2022-08-28T10:30:25.267Z,41.16
2022-08-28T10:33:08.930Z,40.86
2022-08-28T10:35:44.052Z,41.32
2022-08-28T10:38:16.005Z,42.95
2022-08-28T10:40:53.789Z,40.46
2022-08-28T10:43:29.074Z,40.53
2022-08-28T10:46:00.991Z,38.59
2022-08-28T10:48:31.928Z,39.68
2022-08-28T10:51:02.762Z,38.56
2022-08-28T10:53:35.429Z,38.73
2022-08-28T10:56:06.564Z,37.43
2022-08-28T10:58:37.001Z,39.12
2022-08-28T11:01:08.358Z,39.22
2022-08-28T11:03:41.655Z,37.46
2022-08-28T11:06:17.744Z,37.87
2022-08-28T11:08:53.044Z,36.08
2022-08-28T11:11:42.221Z,35.73
2022-08-28T11:14:09.294Z,36.34
2022-08-28T11:16:40.363Z,37.81
2022-08-28T11:19:33.560Z,36.76
2022-08-28T11:22:07.791Z,37.18
2022-08-28T11:24:50.133Z,35.40
2022-08-28T11:27:23.646Z,35.70
2022-08-28T11:30:29.084Z,36.02
2022-08-28T11:33:02.367Z,35.03
2022-08-28T11:35:51.896Z,34.34
2022-08-28T11:38:54.858Z,33.32
2022-08-28T11:41:25.293Z,33.64
2022-08-28T11:44:18.471Z,34.07
2022-08-28T11:46:46.932Z,34.80
2022-08-28T11:49:39.333Z,35.32
2022-08-28T11:52:16.759Z,35.89
2022-08-28T11:54:51.332Z,36.37
2022-08-28T11:57:24.683Z,35.15
2022-08-28T12:00:07.084Z,35.10
2022-08-28T12:02:49.343Z,35.22
2022-08-28T12:05:49.188Z,33.60
2022-08-28T12:08:53.057Z,32.96
2022-08-28T12:11:51.231Z,37.25
2022-08-28T12:15:03.738Z,33.69
2022-08-28T12:17:49.680Z,31.86
2022-08-28T12:20:22.533Z,31.83
2022-08-28T12:22:52.090Z,31.74
2022-08-28T12:25:30.935Z,31.75
2022-08-28T12:28:03.101Z,31.25
2022-08-28T12:30:33.433Z,29.72
2022-08-28T12:33:11.537Z,31.02
2022-08-28T12:35:38.467Z,31.79
2022-08-28T12:38:06.833Z,32.42
2022-08-28T12:40:49.927Z,32.28
2022-08-28T12:43:32.119Z,32.32
2022-08-28T12:46:02.563Z,29.77
2022-08-28T12:48:33.214Z,29.56
2022-08-28T12:51:03.944Z,28.95
2022-08-28T12:53:39.355Z,29.77
2022-08-28T12:56:08.440Z,29.39
2022-08-28T12:58:37.601Z,30.41
2022-08-28T13:01:07.664Z,29.92
2022-08-28T13:03:42.470Z,29.35
2022-08-28T13:06:09.355Z,29.18
2022-08-28T13:08:37.534Z,28.43
2022-08-28T13:11:04.609Z,29.48
2022-08-28T13:13:37.015Z,29.41
2022-08-28T13:16:05.779Z,30.02
2022-08-28T13:18:46.408Z,29.85
2022-08-28T13:21:34.081Z,30.54
2022-08-28T13:24:26.847Z,31.34
2022-08-28T13:27:04.220Z,31.30
2022-08-28T13:29:31.150Z,31.62
2022-08-28T13:31:59.545Z,32.33
2022-08-28T13:34:29.274Z,32.57
2022-08-28T13:36:58.746Z,32.51
2022-08-28T13:39:27.595Z,31.46
2022-08-28T13:41:56.394Z,32.12
2022-08-28T13:44:33.631Z,31.60
2022-08-28T13:47:02.114Z,31.53
2022-08-28T13:49:30.145Z,30.40
2022-08-28T13:51:58.748Z,29.53
2022-08-28T13:54:25.504Z,29.64
2022-08-28T13:56:54.458Z,29.54
2022-08-28T13:59:21.300Z,31.25
2022-08-28T14:01:48.097Z,32.49
2022-08-28T14:04:15.011Z,33.29
2022-08-28T14:06:43.599Z,33.42
2022-08-28T14:09:10.357Z,32.50
2022-08-28T14:11:36.960Z,33.69
2022-08-28T14:14:03.638Z,32.97
2022-08-28T14:16:30.316Z,33.33
2022-08-28T14:18:56.945Z,32.70
2022-08-28T14:21:23.682Z,32.41
2022-08-28T14:23:51.807Z,31.79
2022-08-28T14:26:19.065Z,31.70
2022-08-28T14:28:45.661Z,32.91
2022-08-28T14:31:14.614Z,30.50
2022-08-28T14:33:41.799Z,30.64
2022-08-28T14:36:14.948Z,31.34
2022-08-28T14:38:41.510Z,29.96
2022-08-28T14:41:09.564Z,28.96
2022-08-28T14:43:36.266Z,28.50
2022-08-28T14:46:03.160Z,31.50
2022-08-28T14:48:29.776Z,30.42
2022-08-28T14:50:56.460Z,31.21
2022-08-28T14:53:23.062Z,31.13
2022-08-28T14:55:49.969Z,30.37
2022-08-28T14:58:19.222Z,30.44
2022-08-28T15:00:49.594Z,29.80
2022-08-28T15:03:16.898Z,30.13
2022-08-28T15:05:43.763Z,31.08
2022-08-28T15:08:13.230Z,31.03
2022-08-28T15:10:41.507Z,29.24
2022-08-28T15:13:09.763Z,30.07
2022-08-28T15:15:38.652Z,30.48
2022-08-28T15:18:06.059Z,29.73
2022-08-28T15:20:37.996Z,31.54
2022-08-28T15:23:04.713Z,30.74
2022-08-28T15:25:31.319Z,30.90
2022-08-28T15:27:57.917Z,30.38
2022-08-28T15:30:24.606Z,29.80
2022-08-28T15:32:52.579Z,31.15
2022-08-28T15:35:19.150Z,31.68
2022-08-28T15:37:45.750Z,31.29
2022-08-28T15:40:12.386Z,32.26
2022-08-28T15:42:39.001Z,32.74
2022-08-28T15:45:06.458Z,31.88
2022-08-28T15:47:33.024Z,32.79
2022-08-28T15:50:00.978Z,33.35
2022-08-28T15:52:27.591Z,33.12
2022-08-28T15:54:54.286Z,32.83
2022-08-28T15:57:21.031Z,32.38
2022-08-28T15:59:50.076Z,31.72
2022-08-28T16:02:18.417Z,31.37
2022-08-28T16:04:45.040Z,32.29
2022-08-28T16:07:13.137Z,33.88
2022-08-28T16:09:39.727Z,33.74
2022-08-28T16:12:06.626Z,35.71
2022-08-28T16:14:33.335Z,34.71
2022-08-28T16:16:59.978Z,34.63
2022-08-28T16:19:32.826Z,35.65
2022-08-28T16:21:59.525Z,35.81
2022-08-28T16:24:27.730Z,35.78
2022-08-28T16:26:54.305Z,36.25
2022-08-28T16:29:21.058Z,36.00
2022-08-28T16:31:48.647Z,35.61
2022-08-28T16:34:15.468Z,34.70
2022-08-28T16:36:46.231Z,35.16
2022-08-28T16:39:12.780Z,33.44
2022-08-28T16:41:40.744Z,34.79
2022-08-28T16:44:07.420Z,34.20
2022-08-28T16:46:34.224Z,33.51
2022-08-28T16:49:00.906Z,33.22
2022-08-28T16:51:27.493Z,34.49
2022-08-28T16:53:54.766Z,34.66
2022-08-28T16:56:22.458Z,34.62
2022-08-28T16:58:53.279Z,35.65
2022-08-28T17:01:20.785Z,37.60
2022-08-28T17:03:48.051Z,37.31
2022-08-28T17:06:18.233Z,38.78
2022-08-28T17:08:45.078Z,39.49
2022-08-28T17:11:12.155Z,40.96
2022-08-28T17:13:39.146Z,39.27
2022-08-28T17:16:07.761Z,38.57
2022-08-28T17:18:34.812Z,37.73
2022-08-28T17:21:01.520Z,37.92
2022-08-28T17:23:28.151Z,36.44
2022-08-28T17:25:54.756Z,36.72
2022-08-28T17:28:21.343Z,38.20
2022-08-28T17:30:48.047Z,38.84
2022-08-28T17:33:16.025Z,39.23
2022-08-28T17:35:42.585Z,41.15
2022-08-28T17:38:09.405Z,40.83
2022-08-28T17:40:36.009Z,41.08
2022-08-28T17:43:02.828Z,42.13
2022-08-28T17:45:29.678Z,42.87
2022-08-28T17:47:56.386Z,42.74
2022-08-28T17:50:24.347Z,42.80
2022-08-28T17:52:51.685Z,43.29
2022-08-28T17:55:18.908Z,44.08
2022-08-28T17:57:45.471Z,45.20
2022-08-28T18:00:15.742Z,45.02
2022-08-28T18:02:42.806Z,44.53
2022-08-28T18:05:12.213Z,45.96
2022-08-28T18:07:40.409Z,45.66
2022-08-28T18:10:08.402Z,46.31
2022-08-28T18:12:35.255Z,46.69
2022-08-28T18:15:01.884Z,47.16
2022-08-28T18:17:28.485Z,46.71
2022-08-28T18:19:55.069Z,47.16
2022-08-28T18:22:23.626Z,48.04
2022-08-28T18:24:53.837Z,48.21
2022-08-28T18:27:20.847Z,49.10
2022-08-28T18:29:47.660Z,49.26
2022-08-28T18:32:14.221Z,50.01
2022-08-28T18:34:41.005Z,50.01
2022-08-28T18:37:07.606Z,50.62
2022-08-28T18:39:34.190Z,50.05
2022-08-28T18:42:02.193Z,50.05
2022-08-28T18:44:28.827Z,51.41
2022-08-28T18:46:55.493Z,51.25
2022-08-28T18:49:22.267Z,50.13
2022-08-28T18:51:48.951Z,52.18
2022-08-28T18:54:21.082Z,51.52
2022-08-28T18:56:50.451Z,51.87
2022-08-28T18:59:18.666Z,51.77
2022-08-28T19:01:45.336Z,52.95
2022-08-28T19:04:12.109Z,53.64
2022-08-28T19:06:40.499Z,54.12
2022-08-28T19:09:07.215Z,54.70
2022-08-28T19:11:34.145Z,54.73
2022-08-28T19:14:03.658Z,54.67
2022-08-28T19:16:32.173Z,54.76
2022-08-28T19:18:58.959Z,55.56
2022-08-28T19:21:28.719Z,56.01
2022-08-28T19:23:56.375Z,56.77
2022-08-28T19:26:23.572Z,57.05
2022-08-28T19:28:50.257Z,57.57
2022-08-28T19:31:17.083Z,57.82
2022-08-28T19:33:45.145Z,58.07
2022-08-28T19:36:12.000Z,59.29
2022-08-28T19:38:38.773Z,60.03
2022-08-28T19:41:06.151Z,60.08
2022-08-28T19:43:43.086Z,60.40
2022-08-28T19:46:18.310Z,60.62
2022-08-28T19:48:48.699Z,61.02
2022-08-28T19:51:17.588Z,61.41
2022-08-28T19:53:51.274Z,61.59
2022-08-28T19:56:21.515Z,62.17
2022-08-28T19:58:48.201Z,62.44
2022-08-28T20:01:14.974Z,62.93
2022-08-28T20:03:41.726Z,63.33
2022-08-28T20:06:09.659Z,63.34
2022-08-28T20:08:36.265Z,62.68
2022-08-28T20:11:02.832Z,62.77
2022-08-28T20:13:29.642Z,62.92
2022-08-28T20:15:56.383Z,63.80
2022-08-28T20:18:23.261Z,63.97
2022-08-28T20:20:50.835Z,63.97
2022-08-28T20:23:18.823Z,63.88
2022-08-28T20:25:46.729Z,64.84
2022-08-28T20:28:13.806Z,65.27
2022-08-28T20:30:40.755Z,64.40
2022-08-28T20:33:07.423Z,64.49
2022-08-28T20:35:34.070Z,65.06
2022-08-28T20:38:00.670Z,66.16
2022-08-28T20:40:28.894Z,66.39
2022-08-28T20:42:55.700Z,66.29
2022-08-28T20:45:22.620Z,66.80
2022-08-28T20:47:49.248Z,66.52
2022-08-28T20:50:15.879Z,67.10
2022-08-28T20:52:42.477Z,67.71
2022-08-28T20:55:10.609Z,67.01
2022-08-28T20:57:39.224Z,68.18
2022-08-28T21:00:07.152Z,67.45
2022-08-28T21:02:33.804Z,68.02
2022-08-28T21:05:01.168Z,69.15
2022-08-28T21:07:28.159Z,69.60
2022-08-28T21:10:05.284Z,69.87
2022-08-28T21:12:34.931Z,69.88
2022-08-28T21:15:03.632Z,70.02
2022-08-28T21:17:30.895Z,70.60
2022-08-28T21:20:00.020Z,70.63
2022-08-28T21:22:26.678Z,70.84
2022-08-28T21:24:53.241Z,70.92
2022-08-28T21:27:19.908Z,70.47
2022-08-28T21:29:47.688Z,71.67
2022-08-28T21:32:15.743Z,71.11
2022-08-28T21:34:42.377Z,71.49
2022-08-28T21:37:08.973Z,72.16
2022-08-28T21:39:35.679Z,71.84
2022-08-28T21:42:02.360Z,72.22
2022-08-28T21:44:29.063Z,72.24
2022-08-28T21:46:55.664Z,71.70
2022-08-28T21:49:23.651Z,71.93
2022-08-28T21:51:50.827Z,72.40
2022-08-28T21:54:17.675Z,72.23
2022-08-28T21:56:44.254Z,72.63
2022-08-28T21:59:10.856Z,72.78
2022-08-28T22:01:37.563Z,72.43
2022-08-28T22:04:04.896Z,72.92
2022-08-28T22:06:33.287Z,72.76
2022-08-28T22:08:59.980Z,72.96
2022-08-28T22:11:26.583Z,73.50
2022-08-28T22:13:53.182Z,74.43
2022-08-28T22:16:19.965Z,74.14
2022-08-28T22:18:47.022Z,75.38
2022-08-28T22:21:15.359Z,75.29
2022-08-28T22:23:45.468Z,75.50
2022-08-28T22:26:15.082Z,75.75
2022-08-28T22:28:41.725Z,74.72
2022-08-28T22:31:08.542Z,76.16
2022-08-28T22:33:35.200Z,76.12
2022-08-28T22:36:02.550Z,76.61
2022-08-28T22:41:21.724Z,77.60
2022-08-28T22:43:51.817Z,77.62
2022-08-28T22:46:19.343Z,77.17
2022-08-28T22:48:46.045Z,77.78
2022-08-28T22:51:15.008Z,77.08
2022-08-28T22:53:42.863Z,78.13
2022-08-28T22:56:10.456Z,77.88
2022-08-28T22:58:39.256Z,77.01
2022-08-28T23:01:09.076Z,78.37
2022-08-28T23:03:36.404Z,79.31
2022-08-28T23:06:03.410Z,78.47
2022-08-28T23:08:33.909Z,78.57
2022-08-28T23:11:00.847Z,79.75
2022-08-28T23:13:28.094Z,78.64
2022-08-28T23:15:56.198Z,78.70
2022-08-28T23:18:23.005Z,79.68
2022-08-28T23:20:50.603Z,78.71
2022-08-28T23:23:18.330Z,80.75
2022-08-28T23:25:44.931Z,80.63
2022-08-28T23:28:11.666Z,80.51
2022-08-28T23:30:38.507Z,80.21
2022-08-28T23:33:08.442Z,80.54
2022-08-28T23:35:36.013Z,80.10
2022-08-28T23:38:03.641Z,81.15
2022-08-28T23:40:30.264Z,80.62
2022-08-28T23:42:57.073Z,80.83
2022-08-28T23:45:23.876Z,81.11
2022-08-28T23:47:50.920Z,80.18
2022-08-28T23:50:21.236Z,81.33
2022-08-28T23:52:47.917Z,81.00
2022-08-28T23:55:18.951Z,82.11
2022-08-28T23:57:45.968Z,81.78
